sensor_id;sensor_type;location;lat;lon;timestamp;temperature;humidity
20735;DHT22;10528;52.124;5.196;2023-07-22T00:01:35;15.20;99.90
20735;DHT22;10528;52.124;5.196;2023-07-22T00:04:03;15.10;99.90
20735;DHT22;10528;52.124;5.196;2023-07-22T00:06:31;15.20;99.90
20735;DHT22;10528;52.124;5.196;2023-07-22T00:08:58;15.10;99.90
20735;DHT22;10528;52.124;5.196;2023-07-22T00:11:24;15.10;99.90
20735;DHT22;10528;52.124;5.196;2023-07-22T00:13:51;15.10;99.90
20735;DHT22;10528;52.124;5.196;2023-07-22T00:16:18;15.10;99.90
20735;DHT22;10528;52.124;5.196;2023-07-22T00:18:45;15.10;99.90
20735;DHT22;10528;52.124;5.196;2023-07-22T00:21:12;15.10;99.90
20735;DHT22;10528;52.124;5.196;2023-07-22T00:23:39;15.00;99.90
20735;DHT22;10528;52.124;5.196;2023-07-22T00:26:06;15.00;99.90
20735;DHT22;10528;52.124;5.196;2023-07-22T00:28:33;15.00;99.90
20735;DHT22;10528;52.124;5.196;2023-07-22T00:31:02;15.00;99.90
20735;DHT22;10528;52.124;5.196;2023-07-22T00:33:29;14.90;99.90
20735;DHT22;10528;52.124;5.196;2023-07-22T00:35:56;14.90;99.90
20735;DHT22;10528;52.124;5.196;2023-07-22T00:38:23;14.90;99.90
20735;DHT22;10528;52.124;5.196;2023-07-22T00:40:50;14.90;99.90
20735;DHT22;10528;52.124;5.196;2023-07-22T00:43:17;14.90;99.90
20735;DHT22;10528;52.124;5.196;2023-07-22T00:45:44;14.90;99.90
20735;DHT22;10528;52.124;5.196;2023-07-22T00:48:13;14.90;99.90
20735;DHT22;10528;52.124;5.196;2023-07-22T00:50:41;14.80;99.90
20735;DHT22;10528;52.124;5.196;2023-07-22T00:53:08;14.80;99.90
20735;DHT22;10528;52.124;5.196;2023-07-22T00:55:37;14.90;99.90
20735;DHT22;10528;52.124;5.196;2023-07-22T00:58:07;14.80;99.90
20735;DHT22;10528;52.124;5.196;2023-07-22T01:00:34;14.80;99.90
20735;DHT22;10528;52.124;5.196;2023-07-22T01:03:01;14.80;99.90
20735;DHT22;10528;52.124;5.196;2023-07-22T01:05:28;14.80;99.90
20735;DHT22;10528;52.124;5.196;2023-07-22T01:07:56;14.80;99.90
20735;DHT22;10528;52.124;5.196;2023-07-22T01:10:24;14.80;99.90
20735;DHT22;10528;52.124;5.196;2023-07-22T01:12:50;14.80;99.90
20735;DHT22;10528;52.124;5.196;2023-07-22T01:15:17;14.80;99.90
20735;DHT22;10528;52.124;5.196;2023-07-22T01:17:45;14.70;99.90
20735;DHT22;10528;52.124;5.196;2023-07-22T01:20:12;14.70;99.90
20735;DHT22;10528;52.124;5.196;2023-07-22T01:22:48;14.70;99.90
20735;DHT22;10528;52.124;5.196;2023-07-22T01:25:18;14.70;99.90
20735;DHT22;10528;52.124;5.196;2023-07-22T01:27:48;14.60;99.90
20735;DHT22;10528;52.124;5.196;2023-07-22T01:30:19;14.60;99.90
20735;DHT22;10528;52.124;5.196;2023-07-22T01:32:49;14.50;99.90
20735;DHT22;10528;52.124;5.196;2023-07-22T01:35:18;14.60;99.90
20735;DHT22;10528;52.124;5.196;2023-07-22T01:37:45;14.50;99.90
20735;DHT22;10528;52.124;5.196;2023-07-22T01:40:12;14.50;99.90
20735;DHT22;10528;52.124;5.196;2023-07-22T01:42:40;14.40;99.90
20735;DHT22;10528;52.124;5.196;2023-07-22T01:45:09;14.50;99.90
20735;DHT22;10528;52.124;5.196;2023-07-22T01:47:38;14.40;99.90
20735;DHT22;10528;52.124;5.196;2023-07-22T01:50:06;14.30;99.90
20735;DHT22;10528;52.124;5.196;2023-07-22T01:52:34;14.30;99.90
20735;DHT22;10528;52.124;5.196;2023-07-22T01:55:01;14.30;99.90
20735;DHT22;10528;52.124;5.196;2023-07-22T01:57:32;14.30;99.90
20735;DHT22;10528;52.124;5.196;2023-07-22T02:00:00;14.30;99.90
20735;DHT22;10528;52.124;5.196;2023-07-22T02:02:27;14.30;99.90
20735;DHT22;10528;52.124;5.196;2023-07-22T02:04:54;14.30;99.90
20735;DHT22;10528;52.124;5.196;2023-07-22T02:07:21;14.30;99.90
20735;DHT22;10528;52.124;5.196;2023-07-22T02:09:48;14.30;99.90
20735;DHT22;10528;52.124;5.196;2023-07-22T02:12:18;14.30;99.90
20735;DHT22;10528;52.124;5.196;2023-07-22T02:14:45;14.30;99.90
20735;DHT22;10528;52.124;5.196;2023-07-22T02:17:12;14.30;99.90
20735;DHT22;10528;52.124;5.196;2023-07-22T02:19:39;14.30;99.90
20735;DHT22;10528;52.124;5.196;2023-07-22T02:22:06;14.30;99.90
20735;DHT22;10528;52.124;5.196;2023-07-22T02:24:33;14.30;99.90
20735;DHT22;10528;52.124;5.196;2023-07-22T02:27:00;14.30;99.90
20735;DHT22;10528;52.124;5.196;2023-07-22T02:29:27;14.30;99.90
20735;DHT22;10528;52.124;5.196;2023-07-22T02:31:54;14.30;99.90
20735;DHT22;10528;52.124;5.196;2023-07-22T02:34:21;14.20;99.90
20735;DHT22;10528;52.124;5.196;2023-07-22T02:36:49;14.20;99.90
20735;DHT22;10528;52.124;5.196;2023-07-22T02:39:15;14.30;99.90
20735;DHT22;10528;52.124;5.196;2023-07-22T02:41:43;14.20;99.90
20735;DHT22;10528;52.124;5.196;2023-07-22T02:44:09;14.20;99.90
20735;DHT22;10528;52.124;5.196;2023-07-22T02:46:36;14.20;99.90
20735;DHT22;10528;52.124;5.196;2023-07-22T02:49:03;14.20;99.90
20735;DHT22;10528;52.124;5.196;2023-07-22T02:51:30;14.20;99.90
20735;DHT22;10528;52.124;5.196;2023-07-22T02:53:57;14.20;99.90
20735;DHT22;10528;52.124;5.196;2023-07-22T02:56:24;14.20;99.90
20735;DHT22;10528;52.124;5.196;2023-07-22T02:58:52;14.20;99.90
20735;DHT22;10528;52.124;5.196;2023-07-22T03:01:19;14.20;99.90
20735;DHT22;10528;52.124;5.196;2023-07-22T03:03:46;14.10;99.90
20735;DHT22;10528;52.124;5.196;2023-07-22T03:06:14;14.20;99.90
20735;DHT22;10528;52.124;5.196;2023-07-22T03:08:40;14.10;99.90
20735;DHT22;10528;52.124;5.196;2023-07-22T03:11:08;14.10;99.90
20735;DHT22;10528;52.124;5.196;2023-07-22T03:13:34;14.10;99.90
20735;DHT22;10528;52.124;5.196;2023-07-22T03:16:02;14.20;99.90
20735;DHT22;10528;52.124;5.196;2023-07-22T03:18:32;14.10;99.90
20735;DHT22;10528;52.124;5.196;2023-07-22T03:20:59;14.20;99.90
20735;DHT22;10528;52.124;5.196;2023-07-22T03:23:26;14.30;99.90
20735;DHT22;10528;52.124;5.196;2023-07-22T03:25:53;14.20;99.90
20735;DHT22;10528;52.124;5.196;2023-07-22T03:28:20;14.40;99.90
20735;DHT22;10528;52.124;5.196;2023-07-22T03:30:47;14.30;99.90
20735;DHT22;10528;52.124;5.196;2023-07-22T03:33:14;14.30;99.90
20735;DHT22;10528;52.124;5.196;2023-07-22T03:35:41;14.30;99.90
20735;DHT22;10528;52.124;5.196;2023-07-22T03:38:08;14.20;99.90
20735;DHT22;10528;52.124;5.196;2023-07-22T03:40:35;14.20;99.90
20735;DHT22;10528;52.124;5.196;2023-07-22T03:43:02;14.20;99.90
20735;DHT22;10528;52.124;5.196;2023-07-22T03:45:29;14.20;99.90
20735;DHT22;10528;52.124;5.196;2023-07-22T03:47:57;14.20;99.90
20735;DHT22;10528;52.124;5.196;2023-07-22T03:50:26;14.30;99.90
20735;DHT22;10528;52.124;5.196;2023-07-22T03:52:54;14.30;99.90
20735;DHT22;10528;52.124;5.196;2023-07-22T03:55:21;14.20;99.90
20735;DHT22;10528;52.124;5.196;2023-07-22T03:57:48;14.20;99.90
20735;DHT22;10528;52.124;5.196;2023-07-22T04:00:16;14.20;99.90
20735;DHT22;10528;52.124;5.196;2023-07-22T04:02:43;14.20;99.90
20735;DHT22;10528;52.124;5.196;2023-07-22T04:05:11;14.30;99.90
20735;DHT22;10528;52.124;5.196;2023-07-22T04:07:38;14.30;99.90
20735;DHT22;10528;52.124;5.196;2023-07-22T04:10:06;14.30;99.90
20735;DHT22;10528;52.124;5.196;2023-07-22T04:12:33;14.40;99.90
20735;DHT22;10528;52.124;5.196;2023-07-22T04:15:00;14.50;99.90
20735;DHT22;10528;52.124;5.196;2023-07-22T04:17:28;14.50;99.90
20735;DHT22;10528;52.124;5.196;2023-07-22T04:19:55;14.50;99.90
20735;DHT22;10528;52.124;5.196;2023-07-22T04:22:22;14.60;99.90
20735;DHT22;10528;52.124;5.196;2023-07-22T04:24:50;14.60;99.90
20735;DHT22;10528;52.124;5.196;2023-07-22T04:27:19;14.60;99.90
20735;DHT22;10528;52.124;5.196;2023-07-22T04:29:46;14.70;99.90
20735;DHT22;10528;52.124;5.196;2023-07-22T04:32:14;14.70;99.90
20735;DHT22;10528;52.124;5.196;2023-07-22T04:34:41;14.70;99.90
20735;DHT22;10528;52.124;5.196;2023-07-22T04:37:08;14.70;99.90
20735;DHT22;10528;52.124;5.196;2023-07-22T04:39:35;14.70;99.90
20735;DHT22;10528;52.124;5.196;2023-07-22T04:42:02;14.80;99.90
20735;DHT22;10528;52.124;5.196;2023-07-22T04:44:29;14.90;99.90
20735;DHT22;10528;52.124;5.196;2023-07-22T04:46:55;14.90;99.90
20735;DHT22;10528;52.124;5.196;2023-07-22T04:49:22;15.00;99.90
20735;DHT22;10528;52.124;5.196;2023-07-22T04:51:50;15.00;99.90
20735;DHT22;10528;52.124;5.196;2023-07-22T04:54:17;15.00;99.90
20735;DHT22;10528;52.124;5.196;2023-07-22T04:56:45;15.00;99.90
20735;DHT22;10528;52.124;5.196;2023-07-22T04:59:12;15.00;99.90
20735;DHT22;10528;52.124;5.196;2023-07-22T05:01:40;15.10;99.90
20735;DHT22;10528;52.124;5.196;2023-07-22T05:04:08;15.20;99.90
20735;DHT22;10528;52.124;5.196;2023-07-22T05:06:35;15.30;99.90
20735;DHT22;10528;52.124;5.196;2023-07-22T05:09:02;15.30;99.90
20735;DHT22;10528;52.124;5.196;2023-07-22T05:11:30;15.30;99.90
20735;DHT22;10528;52.124;5.196;2023-07-22T05:13:57;15.40;99.90
20735;DHT22;10528;52.124;5.196;2023-07-22T05:16:24;15.40;99.90
20735;DHT22;10528;52.124;5.196;2023-07-22T05:18:52;15.50;99.90
20735;DHT22;10528;52.124;5.196;2023-07-22T05:21:19;15.50;99.90
20735;DHT22;10528;52.124;5.196;2023-07-22T05:23:46;15.60;99.90
20735;DHT22;10528;52.124;5.196;2023-07-22T05:26:13;15.70;99.90
20735;DHT22;10528;52.124;5.196;2023-07-22T05:28:40;15.70;99.90
20735;DHT22;10528;52.124;5.196;2023-07-22T05:31:06;15.80;99.90
20735;DHT22;10528;52.124;5.196;2023-07-22T05:33:34;15.80;99.90
20735;DHT22;10528;52.124;5.196;2023-07-22T05:36:01;15.80;99.90
20735;DHT22;10528;52.124;5.196;2023-07-22T05:38:28;15.90;99.90
20735;DHT22;10528;52.124;5.196;2023-07-22T05:40:55;15.90;99.90
20735;DHT22;10528;52.124;5.196;2023-07-22T05:43:22;15.90;99.90
20735;DHT22;10528;52.124;5.196;2023-07-22T05:45:49;16.00;99.90
20735;DHT22;10528;52.124;5.196;2023-07-22T05:48:16;16.00;99.90
20735;DHT22;10528;52.124;5.196;2023-07-22T05:50:43;16.10;99.90
20735;DHT22;10528;52.124;5.196;2023-07-22T05:53:12;16.10;99.90
20735;DHT22;10528;52.124;5.196;2023-07-22T05:55:39;16.10;99.90
20735;DHT22;10528;52.124;5.196;2023-07-22T05:58:06;16.20;99.90
20735;DHT22;10528;52.124;5.196;2023-07-22T06:00:33;16.30;99.90
20735;DHT22;10528;52.124;5.196;2023-07-22T06:03:01;16.40;99.90
20735;DHT22;10528;52.124;5.196;2023-07-22T06:05:28;16.50;99.90
20735;DHT22;10528;52.124;5.196;2023-07-22T06:07:55;16.50;99.90
20735;DHT22;10528;52.124;5.196;2023-07-22T06:10:23;16.60;99.90
20735;DHT22;10528;52.124;5.196;2023-07-22T06:12:50;16.70;99.90
20735;DHT22;10528;52.124;5.196;2023-07-22T06:15:17;16.80;99.90
20735;DHT22;10528;52.124;5.196;2023-07-22T06:17:44;16.90;99.90
20735;DHT22;10528;52.124;5.196;2023-07-22T06:20:12;17.00;99.90
20735;DHT22;10528;52.124;5.196;2023-07-22T06:22:39;17.20;99.90
20735;DHT22;10528;52.124;5.196;2023-07-22T06:25:07;17.30;99.90
20735;DHT22;10528;52.124;5.196;2023-07-22T06:27:34;17.60;99.90
20735;DHT22;10528;52.124;5.196;2023-07-22T06:30:02;17.60;99.90
20735;DHT22;10528;52.124;5.196;2023-07-22T06:32:30;17.70;99.90
20735;DHT22;10528;52.124;5.196;2023-07-22T06:34:57;17.60;99.90
20735;DHT22;10528;52.124;5.196;2023-07-22T06:37:25;17.80;99.90
20735;DHT22;10528;52.124;5.196;2023-07-22T06:39:52;17.90;99.90
20735;DHT22;10528;52.124;5.196;2023-07-22T06:42:20;18.00;99.90
20735;DHT22;10528;52.124;5.196;2023-07-22T06:44:47;18.20;99.90
20735;DHT22;10528;52.124;5.196;2023-07-22T06:47:14;18.40;99.90
20735;DHT22;10528;52.124;5.196;2023-07-22T06:49:42;18.40;99.90
20735;DHT22;10528;52.124;5.196;2023-07-22T06:52:12;18.40;99.90
20735;DHT22;10528;52.124;5.196;2023-07-22T06:54:39;18.40;99.90
20735;DHT22;10528;52.124;5.196;2023-07-22T06:57:07;18.40;99.90
20735;DHT22;10528;52.124;5.196;2023-07-22T06:59:33;18.40;99.90
20735;DHT22;10528;52.124;5.196;2023-07-22T07:02:01;18.40;99.90
20735;DHT22;10528;52.124;5.196;2023-07-22T07:04:30;18.40;99.90
20735;DHT22;10528;52.124;5.196;2023-07-22T07:06:57;18.40;99.90
20735;DHT22;10528;52.124;5.196;2023-07-22T07:09:24;18.50;99.90
20735;DHT22;10528;52.124;5.196;2023-07-22T07:11:51;18.60;99.90
20735;DHT22;10528;52.124;5.196;2023-07-22T07:14:18;18.80;99.90
20735;DHT22;10528;52.124;5.196;2023-07-22T07:16:45;18.80;99.90
20735;DHT22;10528;52.124;5.196;2023-07-22T07:19:12;18.80;99.90
20735;DHT22;10528;52.124;5.196;2023-07-22T07:21:39;18.60;99.90
20735;DHT22;10528;52.124;5.196;2023-07-22T07:24:07;18.50;99.90
20735;DHT22;10528;52.124;5.196;2023-07-22T07:26:34;18.50;99.90
20735;DHT22;10528;52.124;5.196;2023-07-22T07:29:01;18.40;99.90
20735;DHT22;10528;52.124;5.196;2023-07-22T07:31:28;18.50;99.90
20735;DHT22;10528;52.124;5.196;2023-07-22T07:33:58;18.50;99.90
20735;DHT22;10528;52.124;5.196;2023-07-22T07:36:25;18.60;99.90
20735;DHT22;10528;52.124;5.196;2023-07-22T07:38:53;18.70;99.90
20735;DHT22;10528;52.124;5.196;2023-07-22T07:41:20;18.80;99.90
20735;DHT22;10528;52.124;5.196;2023-07-22T07:43:47;18.80;99.90
20735;DHT22;10528;52.124;5.196;2023-07-22T07:46:26;18.90;99.90
20735;DHT22;10528;52.124;5.196;2023-07-22T07:48:56;18.90;99.90
20735;DHT22;10528;52.124;5.196;2023-07-22T07:51:26;19.00;99.90
20735;DHT22;10528;52.124;5.196;2023-07-22T07:53:54;19.10;99.90
20735;DHT22;10528;52.124;5.196;2023-07-22T07:56:22;19.30;99.90
20735;DHT22;10528;52.124;5.196;2023-07-22T07:58:53;19.50;99.90
20735;DHT22;10528;52.124;5.196;2023-07-22T08:01:21;19.80;99.90
20735;DHT22;10528;52.124;5.196;2023-07-22T08:03:48;20.20;99.90
20735;DHT22;10528;52.124;5.196;2023-07-22T08:06:15;20.60;99.90
20735;DHT22;10528;52.124;5.196;2023-07-22T08:08:45;20.60;99.90
20735;DHT22;10528;52.124;5.196;2023-07-22T08:11:14;20.40;99.90
20735;DHT22;10528;52.124;5.196;2023-07-22T08:13:43;20.30;99.90
20735;DHT22;10528;52.124;5.196;2023-07-22T08:16:12;20.40;99.90
20735;DHT22;10528;52.124;5.196;2023-07-22T08:18:40;20.20;99.90
20735;DHT22;10528;52.124;5.196;2023-07-22T08:21:07;20.40;99.90
20735;DHT22;10528;52.124;5.196;2023-07-22T08:23:36;20.50;99.90
20735;DHT22;10528;52.124;5.196;2023-07-22T08:26:04;20.90;99.90
20735;DHT22;10528;52.124;5.196;2023-07-22T08:28:34;21.00;99.90
20735;DHT22;10528;52.124;5.196;2023-07-22T08:31:02;20.90;99.90
20735;DHT22;10528;52.124;5.196;2023-07-22T08:33:30;20.90;99.90
20735;DHT22;10528;52.124;5.196;2023-07-22T08:36:08;20.80;99.90
20735;DHT22;10528;52.124;5.196;2023-07-22T08:38:35;20.90;99.90
20735;DHT22;10528;52.124;5.196;2023-07-22T08:41:02;20.90;99.90
20735;DHT22;10528;52.124;5.196;2023-07-22T08:43:30;21.10;99.90
20735;DHT22;10528;52.124;5.196;2023-07-22T08:46:01;21.20;99.90
20735;DHT22;10528;52.124;5.196;2023-07-22T08:48:31;21.10;99.90
20735;DHT22;10528;52.124;5.196;2023-07-22T08:51:09;21.30;99.90
20735;DHT22;10528;52.124;5.196;2023-07-22T08:53:39;21.40;99.90
20735;DHT22;10528;52.124;5.196;2023-07-22T08:56:08;21.40;99.90
20735;DHT22;10528;52.124;5.196;2023-07-22T08:58:38;21.20;99.90
20735;DHT22;10528;52.124;5.196;2023-07-22T09:01:06;21.10;99.90
20735;DHT22;10528;52.124;5.196;2023-07-22T09:03:34;21.10;99.90
20735;DHT22;10528;52.124;5.196;2023-07-22T09:06:04;21.10;99.90
20735;DHT22;10528;52.124;5.196;2023-07-22T09:08:31;21.10;99.90
20735;DHT22;10528;52.124;5.196;2023-07-22T09:10:59;21.10;99.90
20735;DHT22;10528;52.124;5.196;2023-07-22T09:13:26;21.20;99.90
20735;DHT22;10528;52.124;5.196;2023-07-22T09:15:57;21.10;99.90
20735;DHT22;10528;52.124;5.196;2023-07-22T09:18:25;21.00;99.90
20735;DHT22;10528;52.124;5.196;2023-07-22T09:20:52;21.10;99.90
20735;DHT22;10528;52.124;5.196;2023-07-22T09:23:32;21.30;99.90
20735;DHT22;10528;52.124;5.196;2023-07-22T09:26:14;21.40;99.90
20735;DHT22;10528;52.124;5.196;2023-07-22T09:28:56;21.10;99.90
20735;DHT22;10528;52.124;5.196;2023-07-22T09:31:27;21.40;99.90
20735;DHT22;10528;52.124;5.196;2023-07-22T09:34:09;21.40;99.90
20735;DHT22;10528;52.124;5.196;2023-07-22T09:36:53;21.30;99.90
20735;DHT22;10528;52.124;5.196;2023-07-22T09:39:24;21.20;99.90
20735;DHT22;10528;52.124;5.196;2023-07-22T09:41:51;21.10;99.90
20735;DHT22;10528;52.124;5.196;2023-07-22T09:44:19;21.00;99.90
20735;DHT22;10528;52.124;5.196;2023-07-22T09:46:47;21.10;99.90
20735;DHT22;10528;52.124;5.196;2023-07-22T09:49:17;21.00;99.90
20735;DHT22;10528;52.124;5.196;2023-07-22T09:51:45;21.10;99.90
20735;DHT22;10528;52.124;5.196;2023-07-22T09:54:28;20.90;99.90
20735;DHT22;10528;52.124;5.196;2023-07-22T09:56:57;21.00;99.90
20735;DHT22;10528;52.124;5.196;2023-07-22T09:59:24;21.10;99.90
20735;DHT22;10528;52.124;5.196;2023-07-22T10:01:55;21.10;99.90
20735;DHT22;10528;52.124;5.196;2023-07-22T10:04:28;21.20;99.90
20735;DHT22;10528;52.124;5.196;2023-07-22T10:07:00;21.10;99.90
20735;DHT22;10528;52.124;5.196;2023-07-22T10:09:28;21.40;99.90
20735;DHT22;10528;52.124;5.196;2023-07-22T10:11:57;21.40;99.90
20735;DHT22;10528;52.124;5.196;2023-07-22T10:14:25;21.50;99.90
20735;DHT22;10528;52.124;5.196;2023-07-22T10:16:58;21.60;99.90
20735;DHT22;10528;52.124;5.196;2023-07-22T10:19:26;21.70;99.90
20735;DHT22;10528;52.124;5.196;2023-07-22T10:21:54;21.60;99.90
20735;DHT22;10528;52.124;5.196;2023-07-22T10:24:21;21.70;99.90
20735;DHT22;10528;52.124;5.196;2023-07-22T10:26:48;21.50;99.90
20735;DHT22;10528;52.124;5.196;2023-07-22T10:29:18;21.50;99.90
20735;DHT22;10528;52.124;5.196;2023-07-22T10:31:46;21.40;99.90
20735;DHT22;10528;52.124;5.196;2023-07-22T10:34:23;21.40;99.90
20735;DHT22;10528;52.124;5.196;2023-07-22T10:36:51;21.20;99.90
20735;DHT22;10528;52.124;5.196;2023-07-22T10:39:28;21.00;99.90
20735;DHT22;10528;52.124;5.196;2023-07-22T10:42:05;21.00;99.90
20735;DHT22;10528;52.124;5.196;2023-07-22T10:44:39;21.00;99.90
20735;DHT22;10528;52.124;5.196;2023-07-22T10:47:07;21.10;99.90
20735;DHT22;10528;52.124;5.196;2023-07-22T10:49:47;21.00;99.90
20735;DHT22;10528;52.124;5.196;2023-07-22T10:52:15;20.70;99.90
20735;DHT22;10528;52.124;5.196;2023-07-22T10:55:17;20.70;99.90
20735;DHT22;10528;52.124;5.196;2023-07-22T10:57:50;20.80;99.90
20735;DHT22;10528;52.124;5.196;2023-07-22T11:00:20;20.80;99.90
20735;DHT22;10528;52.124;5.196;2023-07-22T11:05:52;20.50;99.90
20735;DHT22;10528;52.124;5.196;2023-07-22T11:08:39;20.70;99.90
20735;DHT22;10528;52.124;5.196;2023-07-22T11:11:07;20.60;99.90
20735;DHT22;10528;52.124;5.196;2023-07-22T11:13:40;20.30;99.90
20735;DHT22;10528;52.124;5.196;2023-07-22T11:16:11;19.80;99.90
20735;DHT22;10528;52.124;5.196;2023-07-22T11:18:40;20.00;99.90
20735;DHT22;10528;52.124;5.196;2023-07-22T11:21:10;19.90;99.90
20735;DHT22;10528;52.124;5.196;2023-07-22T11:23:37;19.70;99.90
20735;DHT22;10528;52.124;5.196;2023-07-22T11:26:05;19.50;99.90
20735;DHT22;10528;52.124;5.196;2023-07-22T11:28:32;19.50;99.90
20735;DHT22;10528;52.124;5.196;2023-07-22T11:30:59;19.30;99.90
20735;DHT22;10528;52.124;5.196;2023-07-22T11:33:38;19.40;99.90
20735;DHT22;10528;52.124;5.196;2023-07-22T11:36:06;20.00;99.90
20735;DHT22;10528;52.124;5.196;2023-07-22T11:38:33;19.90;99.90
20735;DHT22;10528;52.124;5.196;2023-07-22T11:41:02;19.80;99.90
20735;DHT22;10528;52.124;5.196;2023-07-22T11:43:29;19.90;99.90
20735;DHT22;10528;52.124;5.196;2023-07-22T11:45:56;19.70;99.90
20735;DHT22;10528;52.124;5.196;2023-07-22T11:48:23;19.50;99.90
20735;DHT22;10528;52.124;5.196;2023-07-22T11:50:50;19.30;99.90
20735;DHT22;10528;52.124;5.196;2023-07-22T11:53:17;19.20;99.90
20735;DHT22;10528;52.124;5.196;2023-07-22T11:55:44;19.10;99.90
20735;DHT22;10528;52.124;5.196;2023-07-22T11:58:11;19.00;99.90
20735;DHT22;10528;52.124;5.196;2023-07-22T12:00:42;19.00;99.90
20735;DHT22;10528;52.124;5.196;2023-07-22T12:03:31;19.00;99.90
20735;DHT22;10528;52.124;5.196;2023-07-22T12:06:06;19.00;99.90
20735;DHT22;10528;52.124;5.196;2023-07-22T12:08:34;19.10;99.90
20735;DHT22;10528;52.124;5.196;2023-07-22T12:11:03;19.10;99.90
20735;DHT22;10528;52.124;5.196;2023-07-22T12:13:36;18.90;99.90
20735;DHT22;10528;52.124;5.196;2023-07-22T12:16:05;18.80;99.90
20735;DHT22;10528;52.124;5.196;2023-07-22T12:21:09;18.80;99.90
20735;DHT22;10528;52.124;5.196;2023-07-22T12:23:37;18.80;99.90
20735;DHT22;10528;52.124;5.196;2023-07-22T12:26:05;18.90;99.90
20735;DHT22;10528;52.124;5.196;2023-07-22T12:28:32;18.80;99.90
20735;DHT22;10528;52.124;5.196;2023-07-22T12:31:00;18.80;99.90
20735;DHT22;10528;52.124;5.196;2023-07-22T12:33:27;18.80;99.90
20735;DHT22;10528;52.124;5.196;2023-07-22T12:35:55;18.80;99.90
20735;DHT22;10528;52.124;5.196;2023-07-22T12:38:23;18.80;99.90
20735;DHT22;10528;52.124;5.196;2023-07-22T12:40:50;18.80;99.90
20735;DHT22;10528;52.124;5.196;2023-07-22T12:43:17;18.90;99.90
20735;DHT22;10528;52.124;5.196;2023-07-22T12:45:43;19.00;99.90
20735;DHT22;10528;52.124;5.196;2023-07-22T12:48:10;19.20;99.90
20735;DHT22;10528;52.124;5.196;2023-07-22T12:50:38;19.40;99.90
20735;DHT22;10528;52.124;5.196;2023-07-22T12:53:05;19.60;99.90
20735;DHT22;10528;52.124;5.196;2023-07-22T12:55:32;19.80;99.90
20735;DHT22;10528;52.124;5.196;2023-07-22T12:57:59;19.70;99.90
20735;DHT22;10528;52.124;5.196;2023-07-22T13:00:26;19.60;99.90
20735;DHT22;10528;52.124;5.196;2023-07-22T13:02:53;19.50;99.90
20735;DHT22;10528;52.124;5.196;2023-07-22T13:05:21;19.40;99.90
20735;DHT22;10528;52.124;5.196;2023-07-22T13:07:48;19.50;99.90
20735;DHT22;10528;52.124;5.196;2023-07-22T13:10:16;19.40;99.90
20735;DHT22;10528;52.124;5.196;2023-07-22T13:12:46;19.30;99.90
20735;DHT22;10528;52.124;5.196;2023-07-22T13:15:13;19.30;99.90
20735;DHT22;10528;52.124;5.196;2023-07-22T13:17:40;19.30;99.90
20735;DHT22;10528;52.124;5.196;2023-07-22T13:20:07;19.10;99.90
20735;DHT22;10528;52.124;5.196;2023-07-22T13:22:35;19.00;99.90
20735;DHT22;10528;52.124;5.196;2023-07-22T13:25:03;19.00;99.90
20735;DHT22;10528;52.124;5.196;2023-07-22T13:27:30;19.00;99.90
20735;DHT22;10528;52.124;5.196;2023-07-22T13:29:57;19.10;99.90
20735;DHT22;10528;52.124;5.196;2023-07-22T13:32:25;18.90;99.90
20735;DHT22;10528;52.124;5.196;2023-07-22T13:34:53;18.90;99.90
20735;DHT22;10528;52.124;5.196;2023-07-22T13:37:20;18.80;99.90
20735;DHT22;10528;52.124;5.196;2023-07-22T13:39:47;18.80;99.90
20735;DHT22;10528;52.124;5.196;2023-07-22T13:42:14;18.70;99.90
20735;DHT22;10528;52.124;5.196;2023-07-22T13:44:41;18.70;99.90
20735;DHT22;10528;52.124;5.196;2023-07-22T13:47:07;18.70;99.90
20735;DHT22;10528;52.124;5.196;2023-07-22T13:49:34;18.80;99.90
20735;DHT22;10528;52.124;5.196;2023-07-22T13:52:01;18.80;99.90
20735;DHT22;10528;52.124;5.196;2023-07-22T13:54:29;18.80;99.90
20735;DHT22;10528;52.124;5.196;2023-07-22T13:56:56;18.90;99.90
20735;DHT22;10528;52.124;5.196;2023-07-22T13:59:23;19.00;99.90
20735;DHT22;10528;52.124;5.196;2023-07-22T14:01:50;18.90;99.90
20735;DHT22;10528;52.124;5.196;2023-07-22T14:04:17;18.90;99.90
20735;DHT22;10528;52.124;5.196;2023-07-22T14:06:44;19.00;99.90
20735;DHT22;10528;52.124;5.196;2023-07-22T14:09:11;19.10;99.90
20735;DHT22;10528;52.124;5.196;2023-07-22T14:11:38;19.20;99.90
20735;DHT22;10528;52.124;5.196;2023-07-22T14:14:08;19.30;99.90
20735;DHT22;10528;52.124;5.196;2023-07-22T14:16:35;19.40;99.90
20735;DHT22;10528;52.124;5.196;2023-07-22T14:19:02;19.30;99.90
20735;DHT22;10528;52.124;5.196;2023-07-22T14:21:28;19.30;99.90
20735;DHT22;10528;52.124;5.196;2023-07-22T14:23:55;19.40;99.90
20735;DHT22;10528;52.124;5.196;2023-07-22T14:26:22;19.30;99.90
20735;DHT22;10528;52.124;5.196;2023-07-22T14:28:49;19.30;99.90
20735;DHT22;10528;52.124;5.196;2023-07-22T14:31:17;19.40;99.90
20735;DHT22;10528;52.124;5.196;2023-07-22T14:33:44;19.40;99.90
20735;DHT22;10528;52.124;5.196;2023-07-22T14:36:11;19.40;99.90
20735;DHT22;10528;52.124;5.196;2023-07-22T14:38:38;19.50;99.90
20735;DHT22;10528;52.124;5.196;2023-07-22T14:41:05;19.50;99.90
20735;DHT22;10528;52.124;5.196;2023-07-22T14:43:32;19.40;99.90
20735;DHT22;10528;52.124;5.196;2023-07-22T14:45:59;19.30;99.90
20735;DHT22;10528;52.124;5.196;2023-07-22T14:48:26;19.30;99.90
20735;DHT22;10528;52.124;5.196;2023-07-22T14:50:53;19.30;99.90
20735;DHT22;10528;52.124;5.196;2023-07-22T14:53:20;19.10;99.90
20735;DHT22;10528;52.124;5.196;2023-07-22T14:55:47;19.10;99.90
20735;DHT22;10528;52.124;5.196;2023-07-22T14:58:16;19.10;99.90
20735;DHT22;10528;52.124;5.196;2023-07-22T15:00:43;19.00;99.90
20735;DHT22;10528;52.124;5.196;2023-07-22T15:03:09;19.00;99.90
20735;DHT22;10528;52.124;5.196;2023-07-22T15:05:37;19.10;99.90
20735;DHT22;10528;52.124;5.196;2023-07-22T15:08:04;19.10;99.90
20735;DHT22;10528;52.124;5.196;2023-07-22T15:10:31;19.10;99.90
20735;DHT22;10528;52.124;5.196;2023-07-22T15:12:58;19.10;99.90
20735;DHT22;10528;52.124;5.196;2023-07-22T15:15:27;19.10;99.90
20735;DHT22;10528;52.124;5.196;2023-07-22T15:17:54;19.00;99.90
20735;DHT22;10528;52.124;5.196;2023-07-22T15:20:21;18.90;99.90
20735;DHT22;10528;52.124;5.196;2023-07-22T15:22:48;18.80;99.90
20735;DHT22;10528;52.124;5.196;2023-07-22T15:25:15;18.60;99.90
20735;DHT22;10528;52.124;5.196;2023-07-22T15:27:42;18.50;99.90
20735;DHT22;10528;52.124;5.196;2023-07-22T15:30:10;18.60;99.90
20735;DHT22;10528;52.124;5.196;2023-07-22T15:32:38;18.60;99.90
20735;DHT22;10528;52.124;5.196;2023-07-22T15:35:05;18.60;99.90
20735;DHT22;10528;52.124;5.196;2023-07-22T15:37:32;18.70;99.90
20735;DHT22;10528;52.124;5.196;2023-07-22T15:40:01;18.60;99.90
20735;DHT22;10528;52.124;5.196;2023-07-22T15:42:28;18.70;99.90